sensor_id;sensor_type;location;lat;lon;timestamp;pressure;altitude;pressure_sealevel;temperature;humidity
11124;BME280;5616;42.692;23.312;2022-08-19T00:01:21;94863.16;;;23.84;56.76
11124;BME280;5616;42.692;23.312;2022-08-19T00:03:48;94863.44;;;23.83;56.72
11124;BME280;5616;42.692;23.312;2022-08-19T00:06:16;94863.97;;;23.80;56.25
11124;BME280;5616;42.692;23.312;2022-08-19T00:08:43;94858.72;;;23.80;56.41
11124;BME280;5616;42.692;23.312;2022-08-19T00:11:11;94861.06;;;23.76;56.11
11124;BME280;5616;42.692;23.312;2022-08-19T00:13:39;94871.63;;;23.76;57.11
11124;BME280;5616;42.692;23.312;2022-08-19T00:16:06;94868.22;;;23.70;56.95
11124;BME280;5616;42.692;23.312;2022-08-19T00:18:34;94863.50;;;23.67;57.68
11124;BME280;5616;42.692;23.312;2022-08-19T00:21:01;94872.44;;;23.66;57.54
11124;BME280;5616;42.692;23.312;2022-08-19T00:23:28;94883.53;;;23.63;57.43
11124;BME280;5616;42.692;23.312;2022-08-19T00:25:55;94881.16;;;23.62;57.29
11124;BME280;5616;42.692;23.312;2022-08-19T00:28:23;94880.38;;;23.61;57.86
11124;BME280;5616;42.692;23.312;2022-08-19T00:30:50;94883.81;;;23.57;57.33
11124;BME280;5616;42.692;23.312;2022-08-19T00:33:18;94877.75;;;23.56;57.27
11124;BME280;5616;42.692;23.312;2022-08-19T00:35:45;94876.94;;;23.56;58.23
11124;BME280;5616;42.692;23.312;2022-08-19T00:38:12;94867.44;;;23.55;57.92
11124;BME280;5616;42.692;23.312;2022-08-19T00:40:43;94871.69;;;23.51;58.40
11124;BME280;5616;42.692;23.312;2022-08-19T00:43:12;94863.78;;;23.51;58.37
11124;BME280;5616;42.692;23.312;2022-08-19T00:45:41;94866.69;;;23.49;59.13
11124;BME280;5616;42.692;23.312;2022-08-19T00:48:09;94870.91;;;23.40;58.80
11124;BME280;5616;42.692;23.312;2022-08-19T00:50:38;94863.22;;;23.34;58.61
11124;BME280;5616;42.692;23.312;2022-08-19T00:53:09;94862.19;;;23.35;59.41
11124;BME280;5616;42.692;23.312;2022-08-19T00:55:37;94857.19;;;23.33;59.31
11124;BME280;5616;42.692;23.312;2022-08-19T00:58:07;94861.38;;;23.34;59.89
11124;BME280;5616;42.692;23.312;2022-08-19T01:00:35;94862.47;;;23.33;59.65
11124;BME280;5616;42.692;23.312;2022-08-19T01:03:04;94863.22;;;23.29;59.48
11124;BME280;5616;42.692;23.312;2022-08-19T01:05:31;94865.34;;;23.22;59.75
11124;BME280;5616;42.692;23.312;2022-08-19T01:08:00;94867.97;;;23.22;59.62
11124;BME280;5616;42.692;23.312;2022-08-19T01:10:30;94873.50;;;23.10;59.40
11124;BME280;5616;42.692;23.312;2022-08-19T01:12:58;94870.88;;;23.00;59.65
11124;BME280;5616;42.692;23.312;2022-08-19T01:15:30;94874.81;;;23.02;59.93
11124;BME280;5616;42.692;23.312;2022-08-19T01:18:00;94868.00;;;23.06;60.86
11124;BME280;5616;42.692;23.312;2022-08-19T01:20:29;94866.91;;;23.07;60.02
11124;BME280;5616;42.692;23.312;2022-08-19T01:22:58;94862.44;;;22.98;59.39
11124;BME280;5616;42.692;23.312;2022-08-19T01:25:28;94863.25;;;22.98;60.41
11124;BME280;5616;42.692;23.312;2022-08-19T01:27:56;94856.13;;;22.99;60.66
11124;BME280;5616;42.692;23.312;2022-08-19T01:30:26;94861.66;;;22.97;59.96
11124;BME280;5616;42.692;23.312;2022-08-19T01:32:54;94859.03;;;22.97;59.70
11124;BME280;5616;42.692;23.312;2022-08-19T01:35:23;94866.41;;;22.85;59.13
11124;BME280;5616;42.692;23.312;2022-08-19T01:37:52;94867.63;;;22.58;59.66
11124;BME280;5616;42.692;23.312;2022-08-19T01:40:24;94863.91;;;22.43;60.64
11124;BME280;5616;42.692;23.312;2022-08-19T01:42:52;94866.78;;;22.42;60.59
11124;BME280;5616;42.692;23.312;2022-08-19T01:45:20;94872.06;;;22.47;60.20
11124;BME280;5616;42.692;23.312;2022-08-19T01:47:48;94864.44;;;22.45;60.28
11124;BME280;5616;42.692;23.312;2022-08-19T01:50:16;94862.31;;;22.37;60.32
11124;BME280;5616;42.692;23.312;2022-08-19T01:52:44;94871.53;;;22.45;60.98
11124;BME280;5616;42.692;23.312;2022-08-19T01:55:13;94874.97;;;22.50;60.50
11124;BME280;5616;42.692;23.312;2022-08-19T01:57:45;94878.63;;;22.44;60.63
11124;BME280;5616;42.692;23.312;2022-08-19T02:00:16;94877.06;;;22.38;61.19
11124;BME280;5616;42.692;23.312;2022-08-19T02:02:44;94876.78;;;22.35;62.21
11124;BME280;5616;42.692;23.312;2022-08-19T02:05:11;94869.66;;;22.25;62.42
11124;BME280;5616;42.692;23.312;2022-08-19T02:07:39;94881.00;;;22.31;62.08
11124;BME280;5616;42.692;23.312;2022-08-19T02:10:09;94874.66;;;22.32;62.28
11124;BME280;5616;42.692;23.312;2022-08-19T02:12:36;94875.75;;;22.36;63.08
11124;BME280;5616;42.692;23.312;2022-08-19T02:15:06;94880.22;;;22.35;63.13
11124;BME280;5616;42.692;23.312;2022-08-19T02:17:33;94873.63;;;22.38;63.24
11124;BME280;5616;42.692;23.312;2022-08-19T02:20:00;94876.00;;;22.39;63.45
11124;BME280;5616;42.692;23.312;2022-08-19T02:22:27;94868.06;;;22.29;63.31
11124;BME280;5616;42.692;23.312;2022-08-19T02:24:55;94871.47;;;22.15;64.05
11124;BME280;5616;42.692;23.312;2022-08-19T02:27:22;94858.22;;;22.00;64.92
11124;BME280;5616;42.692;23.312;2022-08-19T02:29:50;94873.53;;;22.13;64.64
11124;BME280;5616;42.692;23.312;2022-08-19T02:32:19;94874.59;;;22.12;65.14
11124;BME280;5616;42.692;23.312;2022-08-19T02:34:47;94870.91;;;22.13;65.60
11124;BME280;5616;42.692;23.312;2022-08-19T02:37:14;94866.97;;;22.15;65.22
11124;BME280;5616;42.692;23.312;2022-08-19T02:39:55;94872.50;;;22.14;65.54
11124;BME280;5616;42.692;23.312;2022-08-19T02:42:22;94857.97;;;21.96;65.39
11124;BME280;5616;42.692;23.312;2022-08-19T02:44:49;94877.47;;;22.15;67.37
11124;BME280;5616;42.692;23.312;2022-08-19T02:47:18;94874.53;;;21.97;65.19
11124;BME280;5616;42.692;23.312;2022-08-19T02:49:45;94875.19;;;21.77;64.81
11124;BME280;5616;42.692;23.312;2022-08-19T02:52:14;94878.06;;;21.75;65.08
11124;BME280;5616;42.692;23.312;2022-08-19T02:54:41;94880.59;;;21.60;65.81
11124;BME280;5616;42.692;23.312;2022-08-19T02:57:08;94892.00;;;21.39;66.45
11124;BME280;5616;42.692;23.312;2022-08-19T02:59:35;94886.19;;;21.32;67.38
11124;BME280;5616;42.692;23.312;2022-08-19T03:02:03;94888.47;;;21.23;67.52
11124;BME280;5616;42.692;23.312;2022-08-19T03:04:31;94890.91;;;21.30;67.24
11124;BME280;5616;42.692;23.312;2022-08-19T03:06:58;94891.66;;;21.25;67.66
11124;BME280;5616;42.692;23.312;2022-08-19T03:09:25;94894.72;;;21.12;68.67
11124;BME280;5616;42.692;23.312;2022-08-19T03:11:52;94866.06;;;21.11;67.96
11124;BME280;5616;42.692;23.312;2022-08-19T03:14:19;94885.59;;;21.20;67.99
11124;BME280;5616;42.692;23.312;2022-08-19T03:16:48;94875.91;;;21.25;67.63
11124;BME280;5616;42.692;23.312;2022-08-19T03:19:17;94881.03;;;21.10;68.33
11124;BME280;5616;42.692;23.312;2022-08-19T03:21:45;94884.25;;;21.17;67.75
11124;BME280;5616;42.692;23.312;2022-08-19T03:24:13;94877.94;;;21.18;68.69
11124;BME280;5616;42.692;23.312;2022-08-19T03:26:44;94879.03;;;21.22;68.86
11124;BME280;5616;42.692;23.312;2022-08-19T03:29:12;94883.78;;;21.25;68.58
11124;BME280;5616;42.692;23.312;2022-08-19T03:31:40;94881.53;;;21.44;67.94
11124;BME280;5616;42.692;23.312;2022-08-19T03:34:08;94876.97;;;21.29;68.33
11124;BME280;5616;42.692;23.312;2022-08-19T03:36:37;94885.88;;;21.28;68.64
11124;BME280;5616;42.692;23.312;2022-08-19T03:39:06;94893.31;;;21.37;68.69
11124;BME280;5616;42.692;23.312;2022-08-19T03:41:38;94886.69;;;21.29;68.64
11124;BME280;5616;42.692;23.312;2022-08-19T03:44:06;94894.94;;;21.43;68.11
11124;BME280;5616;42.692;23.312;2022-08-19T03:46:34;94897.56;;;21.43;67.93
11124;BME280;5616;42.692;23.312;2022-08-19T03:49:03;94902.44;;;21.29;68.41
11124;BME280;5616;42.692;23.312;2022-08-19T03:51:34;94910.59;;;21.27;68.63
11124;BME280;5616;42.692;23.312;2022-08-19T03:54:03;94912.19;;;21.33;68.46
11124;BME280;5616;42.692;23.312;2022-08-19T03:56:33;94911.44;;;21.33;69.05
11124;BME280;5616;42.692;23.312;2022-08-19T03:59:01;94909.28;;;21.30;69.09
11124;BME280;5616;42.692;23.312;2022-08-19T04:01:29;94909.25;;;21.25;68.88
11124;BME280;5616;42.692;23.312;2022-08-19T04:03:57;94906.25;;;21.43;69.19
11124;BME280;5616;42.692;23.312;2022-08-19T04:06:26;94916.19;;;21.36;68.92
11124;BME280;5616;42.692;23.312;2022-08-19T04:08:55;94907.16;;;21.27;68.68
11124;BME280;5616;42.692;23.312;2022-08-19T04:11:25;94922.44;;;21.30;68.81
11124;BME280;5616;42.692;23.312;2022-08-19T04:13:54;94920.34;;;21.32;69.03
11124;BME280;5616;42.692;23.312;2022-08-19T04:16:24;94919.03;;;21.34;69.27
11124;BME280;5616;42.692;23.312;2022-08-19T04:18:54;94916.25;;;21.46;68.57
11124;BME280;5616;42.692;23.312;2022-08-19T04:21:25;94928.06;;;21.44;68.62
11124;BME280;5616;42.692;23.312;2022-08-19T04:23:53;94924.19;;;21.56;68.05
11124;BME280;5616;42.692;23.312;2022-08-19T04:26:22;94933.75;;;21.67;67.73
11124;BME280;5616;42.692;23.312;2022-08-19T04:28:50;94928.56;;;21.77;67.92
11124;BME280;5616;42.692;23.312;2022-08-19T04:31:21;94929.09;;;21.84;67.40
11124;BME280;5616;42.692;23.312;2022-08-19T04:33:51;94924.72;;;21.95;66.75
11124;BME280;5616;42.692;23.312;2022-08-19T04:36:21;94930.84;;;22.06;66.55
11124;BME280;5616;42.692;23.312;2022-08-19T04:38:49;94929.91;;;21.85;67.01
11124;BME280;5616;42.692;23.312;2022-08-19T04:41:16;94927.69;;;22.04;66.13
11124;BME280;5616;42.692;23.312;2022-08-19T04:44:00;94931.19;;;22.19;64.88
11124;BME280;5616;42.692;23.312;2022-08-19T04:46:31;94926.47;;;22.26;64.95
11124;BME280;5616;42.692;23.312;2022-08-19T04:48:59;94922.03;;;22.37;64.65
11124;BME280;5616;42.692;23.312;2022-08-19T04:51:26;94923.91;;;22.41;64.53
11124;BME280;5616;42.692;23.312;2022-08-19T04:53:53;94930.78;;;22.52;63.45
11124;BME280;5616;42.692;23.312;2022-08-19T04:56:20;94930.03;;;22.62;63.54
11124;BME280;5616;42.692;23.312;2022-08-19T04:58:48;94930.81;;;22.63;63.12
11124;BME280;5616;42.692;23.312;2022-08-19T05:01:19;94925.84;;;22.66;62.47
11124;BME280;5616;42.692;23.312;2022-08-19T05:03:48;94935.34;;;22.77;62.38
11124;BME280;5616;42.692;23.312;2022-08-19T05:06:18;94933.00;;;22.81;62.11
11124;BME280;5616;42.692;23.312;2022-08-19T05:08:45;94937.72;;;22.84;61.34
11124;BME280;5616;42.692;23.312;2022-08-19T05:11:14;94935.66;;;22.86;61.62
11124;BME280;5616;42.692;23.312;2022-08-19T05:13:42;94944.09;;;22.93;61.07
11124;BME280;5616;42.692;23.312;2022-08-19T05:16:11;94939.09;;;22.96;60.82
11124;BME280;5616;42.692;23.312;2022-08-19T05:18:38;94934.09;;;23.05;60.49
11124;BME280;5616;42.692;23.312;2022-08-19T05:21:25;94934.63;;;23.12;61.33
11124;BME280;5616;42.692;23.312;2022-08-19T05:24:10;94939.38;;;23.15;60.62
11124;BME280;5616;42.692;23.312;2022-08-19T05:26:37;94939.63;;;23.29;59.98
11124;BME280;5616;42.692;23.312;2022-08-19T05:29:06;94942.59;;;23.37;60.04
11124;BME280;5616;42.692;23.312;2022-08-19T05:31:34;94941.25;;;23.50;59.19
11124;BME280;5616;42.692;23.312;2022-08-19T05:34:02;94940.72;;;23.58;58.89
11124;BME280;5616;42.692;23.312;2022-08-19T05:36:35;94931.75;;;23.69;58.85
11124;BME280;5616;42.692;23.312;2022-08-19T05:39:05;94936.50;;;23.82;57.81
11124;BME280;5616;42.692;23.312;2022-08-19T05:41:32;94938.56;;;23.95;57.54
11124;BME280;5616;42.692;23.312;2022-08-19T05:44:02;94932.75;;;24.03;58.20
11124;BME280;5616;42.692;23.312;2022-08-19T05:46:32;94938.81;;;24.19;57.27
11124;BME280;5616;42.692;23.312;2022-08-19T05:48:59;94931.19;;;24.12;57.43
11124;BME280;5616;42.692;23.312;2022-08-19T05:51:25;94937.47;;;24.21;57.60
11124;BME280;5616;42.692;23.312;2022-08-19T05:53:54;94936.66;;;24.36;57.28
11124;BME280;5616;42.692;23.312;2022-08-19T05:56:21;94941.38;;;24.44;55.91
11124;BME280;5616;42.692;23.312;2022-08-19T05:58:48;94932.41;;;24.40;55.43
11124;BME280;5616;42.692;23.312;2022-08-19T06:01:17;94933.44;;;24.39;55.63
11124;BME280;5616;42.692;23.312;2022-08-19T06:03:45;94940.06;;;24.47;55.30
11124;BME280;5616;42.692;23.312;2022-08-19T06:06:14;94946.81;;;24.63;55.74
11124;BME280;5616;42.692;23.312;2022-08-19T06:08:42;94947.06;;;24.71;54.54
11124;BME280;5616;42.692;23.312;2022-08-19T06:11:18;94935.91;;;24.84;54.49
11124;BME280;5616;42.692;23.312;2022-08-19T06:13:46;94946.94;;;25.02;53.38
11124;BME280;5616;42.692;23.312;2022-08-19T06:16:16;94943.56;;;24.91;54.91
11124;BME280;5616;42.692;23.312;2022-08-19T06:18:48;94941.28;;;25.13;53.31
11124;BME280;5616;42.692;23.312;2022-08-19T06:21:17;94948.09;;;25.24;54.15
11124;BME280;5616;42.692;23.312;2022-08-19T06:23:45;94950.13;;;25.37;53.41
11124;BME280;5616;42.692;23.312;2022-08-19T06:26:15;94948.13;;;25.58;52.37
11124;BME280;5616;42.692;23.312;2022-08-19T06:28:42;94947.13;;;25.83;51.50
11124;BME280;5616;42.692;23.312;2022-08-19T06:31:13;94940.81;;;26.07;50.74
11124;BME280;5616;42.692;23.312;2022-08-19T06:33:40;94945.50;;;26.16;49.57
11124;BME280;5616;42.692;23.312;2022-08-19T06:36:08;94955.09;;;26.35;50.87
11124;BME280;5616;42.692;23.312;2022-08-19T06:38:42;94943.25;;;26.51;49.11
11124;BME280;5616;42.692;23.312;2022-08-19T06:41:08;94951.19;;;26.51;48.36
11124;BME280;5616;42.692;23.312;2022-08-19T06:43:37;94949.44;;;26.65;48.22
11124;BME280;5616;42.692;23.312;2022-08-19T06:46:09;94940.16;;;26.87;48.25
11124;BME280;5616;42.692;23.312;2022-08-19T06:48:37;94944.34;;;26.93;48.18
11124;BME280;5616;42.692;23.312;2022-08-19T06:51:04;94948.34;;;27.27;47.93
11124;BME280;5616;42.692;23.312;2022-08-19T06:53:32;94943.47;;;27.53;46.69
11124;BME280;5616;42.692;23.312;2022-08-19T06:55:59;94945.38;;;27.66;45.56
11124;BME280;5616;42.692;23.312;2022-08-19T06:58:28;94941.91;;;27.52;47.59
11124;BME280;5616;42.692;23.312;2022-08-19T07:00:59;94938.72;;;27.82;47.49
11124;BME280;5616;42.692;23.312;2022-08-19T07:03:29;94947.75;;;28.14;44.81
11124;BME280;5616;42.692;23.312;2022-08-19T07:05:57;94948.66;;;28.50;43.89
11124;BME280;5616;42.692;23.312;2022-08-19T07:08:25;94946.50;;;28.79;43.51
11124;BME280;5616;42.692;23.312;2022-08-19T07:10:53;94952.91;;;28.92;43.20
11124;BME280;5616;42.692;23.312;2022-08-19T07:13:20;94949.59;;;29.08;44.02
11124;BME280;5616;42.692;23.312;2022-08-19T07:15:48;94959.28;;;29.40;42.10
11124;BME280;5616;42.692;23.312;2022-08-19T07:18:18;94949.72;;;29.61;41.38
11124;BME280;5616;42.692;23.312;2022-08-19T07:20:47;94952.81;;;29.99;41.58
11124;BME280;5616;42.692;23.312;2022-08-19T07:23:14;94949.53;;;30.33;42.01
11124;BME280;5616;42.692;23.312;2022-08-19T07:25:41;94956.84;;;30.50;39.14
11124;BME280;5616;42.692;23.312;2022-08-19T07:28:08;94956.59;;;30.85;38.34
11124;BME280;5616;42.692;23.312;2022-08-19T07:30:38;94949.47;;;31.12;38.13
11124;BME280;5616;42.692;23.312;2022-08-19T07:33:06;94943.69;;;31.53;37.41
11124;BME280;5616;42.692;23.312;2022-08-19T07:35:34;94949.28;;;31.85;36.47
11124;BME280;5616;42.692;23.312;2022-08-19T07:38:01;94942.53;;;32.05;37.80
11124;BME280;5616;42.692;23.312;2022-08-19T07:40:30;94941.47;;;32.35;36.32
11124;BME280;5616;42.692;23.312;2022-08-19T07:42:57;94943.84;;;32.28;35.97
11124;BME280;5616;42.692;23.312;2022-08-19T07:45:24;94944.94;;;32.74;34.90
11124;BME280;5616;42.692;23.312;2022-08-19T07:47:51;94940.59;;;32.60;34.98
11124;BME280;5616;42.692;23.312;2022-08-19T07:50:20;94942.97;;;33.33;34.58
11124;BME280;5616;42.692;23.312;2022-08-19T07:52:49;94947.22;;;33.75;32.55
11124;BME280;5616;42.692;23.312;2022-08-19T07:55:18;94951.72;;;34.28;33.26
11124;BME280;5616;42.692;23.312;2022-08-19T07:57:45;94944.25;;;34.33;32.97
11124;BME280;5616;42.692;23.312;2022-08-19T08:00:14;94946.38;;;34.28;31.98
11124;BME280;5616;42.692;23.312;2022-08-19T08:02:41;94950.41;;;35.19;31.62
11124;BME280;5616;42.692;23.312;2022-08-19T08:05:09;94940.91;;;35.61;30.29
11124;BME280;5616;42.692;23.312;2022-08-19T08:07:55;94946.81;;;36.38;30.12
11124;BME280;5616;42.692;23.312;2022-08-19T08:10:40;94943.25;;;37.15;29.01
11124;BME280;5616;42.692;23.312;2022-08-19T08:13:07;94943.31;;;37.73;28.20
11124;BME280;5616;42.692;23.312;2022-08-19T08:15:34;94938.00;;;37.76;26.97
11124;BME280;5616;42.692;23.312;2022-08-19T08:18:02;94939.44;;;38.31;26.95
11124;BME280;5616;42.692;23.312;2022-08-19T08:20:30;94936.53;;;38.66;25.41
11124;BME280;5616;42.692;23.312;2022-08-19T08:22:58;94932.34;;;38.95;24.93
11124;BME280;5616;42.692;23.312;2022-08-19T08:25:42;94918.72;;;39.44;25.11
11124;BME280;5616;42.692;23.312;2022-08-19T08:28:09;94922.28;;;40.14;25.36
11124;BME280;5616;42.692;23.312;2022-08-19T08:30:36;94924.31;;;41.30;24.19
11124;BME280;5616;42.692;23.312;2022-08-19T08:33:06;94927.81;;;42.70;20.03
11124;BME280;5616;42.692;23.312;2022-08-19T08:35:34;94926.66;;;44.00;19.35
11124;BME280;5616;42.692;23.312;2022-08-19T08:38:03;94930.22;;;45.03;17.74
11124;BME280;5616;42.692;23.312;2022-08-19T08:40:34;94929.91;;;45.69;16.95
11124;BME280;5616;42.692;23.312;2022-08-19T08:43:09;94928.50;;;46.67;15.93
11124;BME280;5616;42.692;23.312;2022-08-19T08:45:47;94927.97;;;47.22;15.63
11124;BME280;5616;42.692;23.312;2022-08-19T08:48:18;94923.47;;;47.91;16.72
11124;BME280;5616;42.692;23.312;2022-08-19T08:50:47;94922.31;;;48.60;16.46
11124;BME280;5616;42.692;23.312;2022-08-19T08:53:18;94924.34;;;49.04;15.93
11124;BME280;5616;42.692;23.312;2022-08-19T08:55:46;94915.69;;;49.19;14.43
11124;BME280;5616;42.692;23.312;2022-08-19T08:58:17;94914.16;;;49.63;13.91
11124;BME280;5616;42.692;23.312;2022-08-19T09:00:48;94916.59;;;49.86;14.30
11124;BME280;5616;42.692;23.312;2022-08-19T09:03:18;94913.91;;;49.28;13.71
11124;BME280;5616;42.692;23.312;2022-08-19T09:05:52;94907.34;;;49.38;14.20
11124;BME280;5616;42.692;23.312;2022-08-19T09:08:35;94903.28;;;49.14;13.57
11124;BME280;5616;42.692;23.312;2022-08-19T09:11:08;94901.22;;;48.73;14.24
11124;BME280;5616;42.692;23.312;2022-08-19T09:13:44;94898.91;;;48.72;14.80
11124;BME280;5616;42.692;23.312;2022-08-19T09:16:16;94906.63;;;48.28;14.42
11124;BME280;5616;42.692;23.312;2022-08-19T09:18:49;94897.06;;;47.81;14.50
11124;BME280;5616;42.692;23.312;2022-08-19T09:21:18;94896.56;;;47.07;15.85
11124;BME280;5616;42.692;23.312;2022-08-19T09:23:47;94893.44;;;46.12;16.83
11124;BME280;5616;42.692;23.312;2022-08-19T09:26:15;94889.41;;;44.96;18.14
11124;BME280;5616;42.692;23.312;2022-08-19T09:28:44;94884.88;;;43.62;17.41
11124;BME280;5616;42.692;23.312;2022-08-19T09:31:12;94876.94;;;42.70;19.55
11124;BME280;5616;42.692;23.312;2022-08-19T09:33:39;94881.19;;;41.93;21.19
11124;BME280;5616;42.692;23.312;2022-08-19T09:36:12;94870.72;;;41.02;18.99
11124;BME280;5616;42.692;23.312;2022-08-19T09:38:40;94876.78;;;40.30;19.61
11124;BME280;5616;42.692;23.312;2022-08-19T09:41:12;94868.06;;;39.67;22.21
11124;BME280;5616;42.692;23.312;2022-08-19T09:43:40;94864.31;;;39.15;20.42
11124;BME280;5616;42.692;23.312;2022-08-19T09:46:07;94865.09;;;38.86;20.62
11124;BME280;5616;42.692;23.312;2022-08-19T09:48:35;94872.16;;;38.68;20.87
11124;BME280;5616;42.692;23.312;2022-08-19T09:51:04;94875.28;;;38.25;20.89
11124;BME280;5616;42.692;23.312;2022-08-19T09:53:33;94867.81;;;37.92;21.72
11124;BME280;5616;42.692;23.312;2022-08-19T09:56:00;94868.50;;;37.47;22.47
11124;BME280;5616;42.692;23.312;2022-08-19T09:58:29;94864.59;;;37.25;23.91
11124;BME280;5616;42.692;23.312;2022-08-19T10:00:56;94854.53;;;37.03;22.38
11124;BME280;5616;42.692;23.312;2022-08-19T10:03:24;94849.38;;;36.79;24.56
11124;BME280;5616;42.692;23.312;2022-08-19T10:05:52;94843.47;;;36.23;25.16
11124;BME280;5616;42.692;23.312;2022-08-19T10:08:21;94852.41;;;36.27;25.70
11124;BME280;5616;42.692;23.312;2022-08-19T10:10:49;94839.28;;;36.26;26.10
11124;BME280;5616;42.692;23.312;2022-08-19T10:13:19;94836.28;;;36.27;25.85
11124;BME280;5616;42.692;23.312;2022-08-19T10:15:52;94835.75;;;36.22;24.53
11124;BME280;5616;42.692;23.312;2022-08-19T10:18:21;94835.66;;;36.02;25.00
11124;BME280;5616;42.692;23.312;2022-08-19T10:20:49;94830.81;;;36.08;24.69
11124;BME280;5616;42.692;23.312;2022-08-19T10:23:18;94834.63;;;36.07;27.27
11124;BME280;5616;42.692;23.312;2022-08-19T10:25:45;94832.00;;;35.95;26.64
11124;BME280;5616;42.692;23.312;2022-08-19T10:28:13;94825.66;;;35.87;27.77
11124;BME280;5616;42.692;23.312;2022-08-19T10:30:40;94826.63;;;35.64;24.94
11124;BME280;5616;42.692;23.312;2022-08-19T10:33:08;94819.50;;;35.55;26.33
11124;BME280;5616;42.692;23.312;2022-08-19T10:35:35;94820.84;;;35.49;25.72
11124;BME280;5616;42.692;23.312;2022-08-19T10:38:03;94810.53;;;35.08;27.36
11124;BME280;5616;42.692;23.312;2022-08-19T10:40:30;94820.91;;;35.10;27.93
11124;BME280;5616;42.692;23.312;2022-08-19T10:42:57;94812.41;;;35.08;25.37
11124;BME280;5616;42.692;23.312;2022-08-19T10:45:24;94817.00;;;35.07;27.17
11124;BME280;5616;42.692;23.312;2022-08-19T10:47:52;94811.97;;;35.06;26.55
11124;BME280;5616;42.692;23.312;2022-08-19T10:50:20;94806.91;;;35.16;28.47
11124;BME280;5616;42.692;23.312;2022-08-19T10:53:06;94800.00;;;34.63;27.05
11124;BME280;5616;42.692;23.312;2022-08-19T10:55:35;94807.63;;;34.37;27.40
11124;BME280;5616;42.692;23.312;2022-08-19T10:58:21;94811.06;;;34.50;27.62
11124;BME280;5616;42.692;23.312;2022-08-19T11:00:55;94804.91;;;34.73;25.83
11124;BME280;5616;42.692;23.312;2022-08-19T11:03:23;94805.31;;;34.87;27.89
11124;BME280;5616;42.692;23.312;2022-08-19T11:05:59;94809.97;;;34.90;25.46
11124;BME280;5616;42.692;23.312;2022-08-19T11:08:26;94809.97;;;34.90;25.78
11124;BME280;5616;42.692;23.312;2022-08-19T11:10:53;94798.38;;;34.86;25.44
11124;BME280;5616;42.692;23.312;2022-08-19T11:13:26;94795.00;;;34.89;27.04
11124;BME280;5616;42.692;23.312;2022-08-19T11:15:59;94791.44;;;34.85;27.15
11124;BME280;5616;42.692;23.312;2022-08-19T11:18:27;94799.47;;;34.85;28.12
11124;BME280;5616;42.692;23.312;2022-08-19T11:20:54;94792.81;;;34.79;27.00
11124;BME280;5616;42.692;23.312;2022-08-19T11:23:22;94789.88;;;34.84;25.64
11124;BME280;5616;42.692;23.312;2022-08-19T11:25:49;94786.75;;;34.82;25.47
11124;BME280;5616;42.692;23.312;2022-08-19T11:28:16;94782.94;;;34.83;25.68
11124;BME280;5616;42.692;23.312;2022-08-19T11:30:43;94783.59;;;34.92;25.62
11124;BME280;5616;42.692;23.312;2022-08-19T11:33:10;94783.34;;;34.97;24.98
11124;BME280;5616;42.692;23.312;2022-08-19T11:35:39;94781.53;;;35.01;25.54
11124;BME280;5616;42.692;23.312;2022-08-19T11:38:06;94765.09;;;35.03;26.24
11124;BME280;5616;42.692;23.312;2022-08-19T11:40:35;94760.50;;;35.03;27.32
11124;BME280;5616;42.692;23.312;2022-08-19T11:43:02;94772.94;;;35.08;26.87
11124;BME280;5616;42.692;23.312;2022-08-19T11:45:30;94761.63;;;35.02;26.20
11124;BME280;5616;42.692;23.312;2022-08-19T11:47:57;94761.97;;;35.01;26.83
11124;BME280;5616;42.692;23.312;2022-08-19T11:50:24;94763.97;;;35.04;25.42
11124;BME280;5616;42.692;23.312;2022-08-19T11:52:53;94755.84;;;35.00;26.10
11124;BME280;5616;42.692;23.312;2022-08-19T11:55:20;94760.63;;;35.07;27.10
11124;BME280;5616;42.692;23.312;2022-08-19T11:57:49;94761.97;;;35.01;26.15
11124;BME280;5616;42.692;23.312;2022-08-19T12:00:16;94760.47;;;35.16;26.32
11124;BME280;5616;42.692;23.312;2022-08-19T12:02:43;94756.72;;;35.32;26.11
11124;BME280;5616;42.692;23.312;2022-08-19T12:05:10;94751.84;;;35.38;26.92
11124;BME280;5616;42.692;23.312;2022-08-19T12:07:36;94742.16;;;35.49;26.00
11124;BME280;5616;42.692;23.312;2022-08-19T12:10:04;94741.22;;;35.57;27.78
11124;BME280;5616;42.692;23.312;2022-08-19T12:12:31;94742.28;;;35.68;28.01
11124;BME280;5616;42.692;23.312;2022-08-19T12:14:59;94740.63;;;35.79;25.19
11124;BME280;5616;42.692;23.312;2022-08-19T12:17:27;94740.00;;;35.86;25.54
11124;BME280;5616;42.692;23.312;2022-08-19T12:19:56;94732.03;;;35.89;24.62
11124;BME280;5616;42.692;23.312;2022-08-19T12:22:23;94733.41;;;35.83;26.25
11124;BME280;5616;42.692;23.312;2022-08-19T12:24:50;94723.81;;;35.82;25.50
11124;BME280;5616;42.692;23.312;2022-08-19T12:27:18;94718.63;;;35.58;25.40
11124;BME280;5616;42.692;23.312;2022-08-19T12:29:45;94719.03;;;35.44;26.15
11124;BME280;5616;42.692;23.312;2022-08-19T12:32:14;94714.72;;;35.55;28.26
11124;BME280;5616;42.692;23.312;2022-08-19T12:34:42;94709.09;;;35.60;25.68
11124;BME280;5616;42.692;23.312;2022-08-19T12:37:10;94710.47;;;35.70;27.15
11124;BME280;5616;42.692;23.312;2022-08-19T12:39:39;94713.41;;;35.81;28.60
11124;BME280;5616;42.692;23.312;2022-08-19T12:42:07;94703.16;;;35.86;25.83
11124;BME280;5616;42.692;23.312;2022-08-19T12:44:34;94700.00;;;36.00;25.34
11124;BME280;5616;42.692;23.312;2022-08-19T12:47:02;94703.66;;;36.07;25.22
11124;BME280;5616;42.692;23.312;2022-08-19T12:49:31;94706.97;;;36.01;24.70
11124;BME280;5616;42.692;23.312;2022-08-19T12:51:59;94703.81;;;35.99;27.36
11124;BME280;5616;42.692;23.312;2022-08-19T12:54:26;94694.81;;;35.91;25.22
11124;BME280;5616;42.692;23.312;2022-08-19T12:56:53;94693.00;;;35.95;25.86
11124;BME280;5616;42.692;23.312;2022-08-19T12:59:20;94690.75;;;35.97;25.20
11124;BME280;5616;42.692;23.312;2022-08-19T13:01:47;94696.41;;;35.92;25.11
11124;BME280;5616;42.692;23.312;2022-08-19T13:04:15;94696.13;;;35.97;25.55
11124;BME280;5616;42.692;23.312;2022-08-19T13:06:43;94682.34;;;35.83;25.71
11124;BME280;5616;42.692;23.312;2022-08-19T13:09:10;94688.69;;;35.75;25.78